sensor_id;sensor_type;location;lat;lon;timestamp;P1;durP1;ratioP1;P2;durP2;ratioP2
41568;SDS011;27283;52.504;13.358;2023-08-06T00:02:00;21.08;;;13.73;;
41568;SDS011;27283;52.504;13.358;2023-08-06T00:04:33;20.33;;;14.15;;
41568;SDS011;27283;52.504;13.358;2023-08-06T00:07:06;19.85;;;14.02;;
41568;SDS011;27283;52.504;13.358;2023-08-06T00:09:39;19.80;;;13.32;;
41568;SDS011;27283;52.504;13.358;2023-08-06T00:12:14;18.17;;;13.43;;
41568;SDS011;27283;52.504;13.358;2023-08-06T00:14:49;19.55;;;13.50;;
41568;SDS011;27283;52.504;13.358;2023-08-06T00:17:22;22.92;;;14.43;;
41568;SDS011;27283;52.504;13.358;2023-08-06T00:19:55;19.45;;;13.38;;
41568;SDS011;27283;52.504;13.358;2023-08-06T00:22:33;20.83;;;12.90;;
41568;SDS011;27283;52.504;13.358;2023-08-06T00:25:06;18.77;;;12.93;;
41568;SDS011;27283;52.504;13.358;2023-08-06T00:27:42;18.73;;;12.90;;
41568;SDS011;27283;52.504;13.358;2023-08-06T00:30:15;17.50;;;12.55;;
41568;SDS011;27283;52.504;13.358;2023-08-06T00:32:48;19.08;;;12.43;;
41568;SDS011;27283;52.504;13.358;2023-08-06T00:35:21;18.13;;;11.30;;
41568;SDS011;27283;52.504;13.358;2023-08-06T00:37:54;17.50;;;11.88;;
41568;SDS011;27283;52.504;13.358;2023-08-06T00:40:26;15.38;;;11.35;;
41568;SDS011;27283;52.504;13.358;2023-08-06T00:43:02;18.42;;;11.45;;
41568;SDS011;27283;52.504;13.358;2023-08-06T00:45:36;17.80;;;11.98;;
41568;SDS011;27283;52.504;13.358;2023-08-06T00:48:15;19.45;;;11.80;;
41568;SDS011;27283;52.504;13.358;2023-08-06T00:50:48;17.02;;;12.00;;
41568;SDS011;27283;52.504;13.358;2023-08-06T00:53:21;15.70;;;11.02;;
41568;SDS011;27283;52.504;13.358;2023-08-06T00:55:54;16.73;;;11.65;;
41568;SDS011;27283;52.504;13.358;2023-08-06T00:58:30;15.75;;;11.48;;
41568;SDS011;27283;52.504;13.358;2023-08-06T01:01:16;17.95;;;11.48;;
41568;SDS011;27283;52.504;13.358;2023-08-06T01:04:46;17.27;;;11.27;;
41568;SDS011;27283;52.504;13.358;2023-08-06T01:07:28;14.63;;;10.70;;
41568;SDS011;27283;52.504;13.358;2023-08-06T01:10:16;15.65;;;10.88;;
41568;SDS011;27283;52.504;13.358;2023-08-06T01:12:59;15.85;;;11.10;;
41568;SDS011;27283;52.504;13.358;2023-08-06T01:19:49;16.23;;;11.10;;
41568;SDS011;27283;52.504;13.358;2023-08-06T01:27:38;16.98;;;11.07;;
41568;SDS011;27283;52.504;13.358;2023-08-06T01:30:28;19.38;;;11.85;;
41568;SDS011;27283;52.504;13.358;2023-08-06T01:34:20;15.35;;;10.85;;
41568;SDS011;27283;52.504;13.358;2023-08-06T01:37:17;16.10;;;11.70;;
41568;SDS011;27283;52.504;13.358;2023-08-06T01:39:54;17.00;;;11.52;;
41568;SDS011;27283;52.504;13.358;2023-08-06T01:42:33;15.25;;;10.57;;
41568;SDS011;27283;52.504;13.358;2023-08-06T01:46:31;17.52;;;11.13;;
41568;SDS011;27283;52.504;13.358;2023-08-06T01:49:03;17.05;;;11.38;;
41568;SDS011;27283;52.504;13.358;2023-08-06T01:51:35;17.00;;;11.63;;
41568;SDS011;27283;52.504;13.358;2023-08-06T01:54:10;16.75;;;11.23;;
41568;SDS011;27283;52.504;13.358;2023-08-06T01:57:21;18.42;;;12.30;;
41568;SDS011;27283;52.504;13.358;2023-08-06T01:59:53;14.52;;;11.25;;
41568;SDS011;27283;52.504;13.358;2023-08-06T02:02:35;19.20;;;11.90;;
41568;SDS011;27283;52.504;13.358;2023-08-06T02:05:43;17.92;;;11.70;;
41568;SDS011;27283;52.504;13.358;2023-08-06T02:08:15;16.27;;;11.18;;
41568;SDS011;27283;52.504;13.358;2023-08-06T02:11:02;17.13;;;11.25;;
41568;SDS011;27283;52.504;13.358;2023-08-06T02:14:20;15.70;;;11.77;;
41568;SDS011;27283;52.504;13.358;2023-08-06T02:17:20;18.17;;;11.90;;
41568;SDS011;27283;52.504;13.358;2023-08-06T02:19:57;17.45;;;12.50;;
41568;SDS011;27283;52.504;13.358;2023-08-06T02:23:23;16.98;;;12.38;;
41568;SDS011;27283;52.504;13.358;2023-08-06T02:25:59;17.27;;;12.30;;
41568;SDS011;27283;52.504;13.358;2023-08-06T02:28:31;16.67;;;11.85;;
41568;SDS011;27283;52.504;13.358;2023-08-06T02:34:03;19.02;;;13.45;;
41568;SDS011;27283;52.504;13.358;2023-08-06T02:36:43;18.17;;;12.68;;
41568;SDS011;27283;52.504;13.358;2023-08-06T02:39:30;21.02;;;13.60;;
41568;SDS011;27283;52.504;13.358;2023-08-06T02:42:03;22.45;;;12.55;;
41568;SDS011;27283;52.504;13.358;2023-08-06T02:44:35;19.25;;;13.48;;
41568;SDS011;27283;52.504;13.358;2023-08-06T02:47:10;20.70;;;13.38;;
41568;SDS011;27283;52.504;13.358;2023-08-06T02:49:43;18.48;;;13.38;;
41568;SDS011;27283;52.504;13.358;2023-08-06T02:52:15;18.73;;;13.68;;
41568;SDS011;27283;52.504;13.358;2023-08-06T02:54:47;18.83;;;14.40;;
41568;SDS011;27283;52.504;13.358;2023-08-06T02:57:19;19.23;;;13.55;;
41568;SDS011;27283;52.504;13.358;2023-08-06T02:59:51;23.60;;;14.25;;
41568;SDS011;27283;52.504;13.358;2023-08-06T03:02:26;20.95;;;14.50;;
41568;SDS011;27283;52.504;13.358;2023-08-06T03:05:01;20.13;;;14.63;;
41568;SDS011;27283;52.504;13.358;2023-08-06T03:07:35;19.40;;;14.32;;
41568;SDS011;27283;52.504;13.358;2023-08-06T03:10:07;20.20;;;14.18;;
41568;SDS011;27283;52.504;13.358;2023-08-06T03:12:41;20.75;;;14.07;;
41568;SDS011;27283;52.504;13.358;2023-08-06T03:15:13;20.52;;;13.57;;
41568;SDS011;27283;52.504;13.358;2023-08-06T03:17:52;19.00;;;12.95;;
41568;SDS011;27283;52.504;13.358;2023-08-06T03:20:28;19.40;;;13.20;;
41568;SDS011;27283;52.504;13.358;2023-08-06T03:22:59;17.40;;;12.48;;
41568;SDS011;27283;52.504;13.358;2023-08-06T03:25:34;21.08;;;13.75;;
41568;SDS011;27283;52.504;13.358;2023-08-06T03:28:12;20.52;;;13.05;;
41568;SDS011;27283;52.504;13.358;2023-08-06T03:30:45;17.42;;;12.30;;
41568;SDS011;27283;52.504;13.358;2023-08-06T03:33:20;18.70;;;13.73;;
41568;SDS011;27283;52.504;13.358;2023-08-06T03:35:52;20.10;;;13.68;;
41568;SDS011;27283;52.504;13.358;2023-08-06T03:38:25;20.45;;;12.98;;
41568;SDS011;27283;52.504;13.358;2023-08-06T03:42:10;17.80;;;13.27;;
41568;SDS011;27283;52.504;13.358;2023-08-06T03:44:42;16.88;;;12.02;;
41568;SDS011;27283;52.504;13.358;2023-08-06T03:47:16;19.52;;;12.52;;
41568;SDS011;27283;52.504;13.358;2023-08-06T03:49:51;21.55;;;13.15;;
41568;SDS011;27283;52.504;13.358;2023-08-06T03:52:25;21.77;;;13.88;;
41568;SDS011;27283;52.504;13.358;2023-08-06T03:54:58;21.48;;;14.55;;
41568;SDS011;27283;52.504;13.358;2023-08-06T03:57:31;21.85;;;13.52;;
41568;SDS011;27283;52.504;13.358;2023-08-06T04:00:04;21.65;;;14.15;;
41568;SDS011;27283;52.504;13.358;2023-08-06T04:05:48;22.02;;;14.32;;
41568;SDS011;27283;52.504;13.358;2023-08-06T04:08:20;20.20;;;13.57;;
41568;SDS011;27283;52.504;13.358;2023-08-06T04:11:06;19.70;;;13.10;;
41568;SDS011;27283;52.504;13.358;2023-08-06T04:13:41;19.27;;;12.90;;
41568;SDS011;27283;52.504;13.358;2023-08-06T04:16:53;17.33;;;12.20;;
41568;SDS011;27283;52.504;13.358;2023-08-06T04:19:26;18.70;;;11.27;;
41568;SDS011;27283;52.504;13.358;2023-08-06T04:25:10;15.30;;;10.10;;
41568;SDS011;27283;52.504;13.358;2023-08-06T04:27:42;16.08;;;10.27;;
41568;SDS011;27283;52.504;13.358;2023-08-06T04:30:24;16.30;;;10.50;;
41568;SDS011;27283;52.504;13.358;2023-08-06T04:33:58;13.90;;;10.07;;
41568;SDS011;27283;52.504;13.358;2023-08-06T04:36:31;16.25;;;10.73;;
41568;SDS011;27283;52.504;13.358;2023-08-06T04:41:53;20.27;;;11.98;;
41568;SDS011;27283;52.504;13.358;2023-08-06T04:44:30;16.52;;;11.35;;
41568;SDS011;27283;52.504;13.358;2023-08-06T04:47:34;16.17;;;10.55;;
41568;SDS011;27283;52.504;13.358;2023-08-06T04:50:06;18.27;;;11.48;;
41568;SDS011;27283;52.504;13.358;2023-08-06T04:52:39;17.17;;;12.00;;
41568;SDS011;27283;52.504;13.358;2023-08-06T04:58:58;23.20;;;13.65;;
41568;SDS011;27283;52.504;13.358;2023-08-06T05:01:31;18.58;;;12.38;;
41568;SDS011;27283;52.504;13.358;2023-08-06T05:04:40;17.58;;;12.57;;
41568;SDS011;27283;52.504;13.358;2023-08-06T05:07:12;22.15;;;13.73;;
41568;SDS011;27283;52.504;13.358;2023-08-06T05:09:47;19.85;;;12.93;;
41568;SDS011;27283;52.504;13.358;2023-08-06T05:12:19;21.17;;;13.40;;
41568;SDS011;27283;52.504;13.358;2023-08-06T05:14:54;19.60;;;12.90;;
41568;SDS011;27283;52.504;13.358;2023-08-06T05:17:26;19.83;;;12.82;;
41568;SDS011;27283;52.504;13.358;2023-08-06T05:19:59;15.43;;;11.23;;
41568;SDS011;27283;52.504;13.358;2023-08-06T05:22:31;17.85;;;11.57;;
41568;SDS011;27283;52.504;13.358;2023-08-06T05:25:04;16.35;;;11.27;;
41568;SDS011;27283;52.504;13.358;2023-08-06T05:27:37;18.33;;;11.23;;
41568;SDS011;27283;52.504;13.358;2023-08-06T05:30:12;14.65;;;10.23;;
41568;SDS011;27283;52.504;13.358;2023-08-06T05:32:44;16.48;;;10.18;;
41568;SDS011;27283;52.504;13.358;2023-08-06T05:35:17;19.20;;;10.68;;
41568;SDS011;27283;52.504;13.358;2023-08-06T05:37:49;13.95;;;10.02;;
41568;SDS011;27283;52.504;13.358;2023-08-06T05:40:22;13.60;;;8.95;;
41568;SDS011;27283;52.504;13.358;2023-08-06T05:42:54;13.88;;;9.90;;
41568;SDS011;27283;52.504;13.358;2023-08-06T05:45:29;14.90;;;9.60;;
41568;SDS011;27283;52.504;13.358;2023-08-06T05:48:02;13.38;;;9.75;;
41568;SDS011;27283;52.504;13.358;2023-08-06T05:50:34;14.95;;;9.98;;
41568;SDS011;27283;52.504;13.358;2023-08-06T05:53:07;15.75;;;9.93;;
41568;SDS011;27283;52.504;13.358;2023-08-06T05:55:39;14.10;;;10.38;;
41568;SDS011;27283;52.504;13.358;2023-08-06T05:58:11;15.57;;;9.93;;
41568;SDS011;27283;52.504;13.358;2023-08-06T06:00:47;15.13;;;10.07;;
41568;SDS011;27283;52.504;13.358;2023-08-06T06:03:19;16.15;;;10.90;;
41568;SDS011;27283;52.504;13.358;2023-08-06T06:05:51;23.27;;;13.52;;
41568;SDS011;27283;52.504;13.358;2023-08-06T06:08:25;26.25;;;16.65;;
41568;SDS011;27283;52.504;13.358;2023-08-06T06:10:58;19.40;;;11.35;;
41568;SDS011;27283;52.504;13.358;2023-08-06T06:13:30;16.08;;;10.32;;
41568;SDS011;27283;52.504;13.358;2023-08-06T06:16:05;29.63;;;18.13;;
41568;SDS011;27283;52.504;13.358;2023-08-06T06:18:38;16.77;;;10.15;;
41568;SDS011;27283;52.504;13.358;2023-08-06T06:21:10;14.63;;;10.25;;
41568;SDS011;27283;52.504;13.358;2023-08-06T06:23:42;14.00;;;8.82;;
41568;SDS011;27283;52.504;13.358;2023-08-06T06:26:17;13.43;;;9.40;;
41568;SDS011;27283;52.504;13.358;2023-08-06T06:28:53;14.07;;;9.07;;
41568;SDS011;27283;52.504;13.358;2023-08-06T06:31:28;14.38;;;8.95;;
41568;SDS011;27283;52.504;13.358;2023-08-06T06:34:00;16.20;;;9.88;;
41568;SDS011;27283;52.504;13.358;2023-08-06T06:36:38;15.35;;;10.23;;
41568;SDS011;27283;52.504;13.358;2023-08-06T06:39:10;13.80;;;8.95;;
41568;SDS011;27283;52.504;13.358;2023-08-06T06:41:43;14.10;;;9.50;;
41568;SDS011;27283;52.504;13.358;2023-08-06T06:44:15;14.43;;;9.60;;
41568;SDS011;27283;52.504;13.358;2023-08-06T06:46:53;12.80;;;9.48;;
41568;SDS011;27283;52.504;13.358;2023-08-06T06:49:28;13.57;;;10.20;;
41568;SDS011;27283;52.504;13.358;2023-08-06T06:52:00;15.95;;;11.82;;
41568;SDS011;27283;52.504;13.358;2023-08-06T06:54:33;15.30;;;10.55;;
41568;SDS011;27283;52.504;13.358;2023-08-06T06:57:05;16.75;;;11.40;;
41568;SDS011;27283;52.504;13.358;2023-08-06T06:59:37;16.45;;;11.65;;
41568;SDS011;27283;52.504;13.358;2023-08-06T07:02:13;20.13;;;12.77;;
41568;SDS011;27283;52.504;13.358;2023-08-06T07:04:45;16.00;;;11.60;;
41568;SDS011;27283;52.504;13.358;2023-08-06T07:07:17;17.20;;;11.57;;
41568;SDS011;27283;52.504;13.358;2023-08-06T07:09:50;16.90;;;11.32;;
41568;SDS011;27283;52.504;13.358;2023-08-06T07:12:22;22.25;;;13.27;;
41568;SDS011;27283;52.504;13.358;2023-08-06T07:14:55;20.45;;;12.90;;
41568;SDS011;27283;52.504;13.358;2023-08-06T07:17:30;18.23;;;12.20;;
41568;SDS011;27283;52.504;13.358;2023-08-06T07:20:10;18.08;;;11.90;;
41568;SDS011;27283;52.504;13.358;2023-08-06T07:22:45;16.95;;;11.50;;
41568;SDS011;27283;52.504;13.358;2023-08-06T07:25:21;16.05;;;11.68;;
41568;SDS011;27283;52.504;13.358;2023-08-06T07:27:54;17.33;;;12.38;;
41568;SDS011;27283;52.504;13.358;2023-08-06T07:30:26;17.17;;;11.98;;
41568;SDS011;27283;52.504;13.358;2023-08-06T07:33:01;19.88;;;12.98;;
41568;SDS011;27283;52.504;13.358;2023-08-06T07:35:34;18.42;;;12.73;;
41568;SDS011;27283;52.504;13.358;2023-08-06T07:38:06;20.40;;;13.00;;
41568;SDS011;27283;52.504;13.358;2023-08-06T07:40:41;22.52;;;13.75;;
41568;SDS011;27283;52.504;13.358;2023-08-06T07:43:22;22.42;;;14.70;;
41568;SDS011;27283;52.504;13.358;2023-08-06T07:45:57;19.63;;;14.15;;
41568;SDS011;27283;52.504;13.358;2023-08-06T07:48:33;20.65;;;13.80;;
41568;SDS011;27283;52.504;13.358;2023-08-06T07:51:06;22.55;;;13.38;;
41568;SDS011;27283;52.504;13.358;2023-08-06T07:53:44;20.00;;;12.50;;
41568;SDS011;27283;52.504;13.358;2023-08-06T07:56:26;21.38;;;14.48;;
41568;SDS011;27283;52.504;13.358;2023-08-06T07:58:58;21.55;;;14.35;;
41568;SDS011;27283;52.504;13.358;2023-08-06T08:01:30;22.35;;;13.52;;
41568;SDS011;27283;52.504;13.358;2023-08-06T08:04:06;22.02;;;14.25;;
41568;SDS011;27283;52.504;13.358;2023-08-06T08:06:38;19.02;;;13.07;;
41568;SDS011;27283;52.504;13.358;2023-08-06T08:09:10;21.92;;;14.70;;
41568;SDS011;27283;52.504;13.358;2023-08-06T08:11:43;20.83;;;14.68;;
41568;SDS011;27283;52.504;13.358;2023-08-06T08:14:15;24.25;;;15.75;;
41568;SDS011;27283;52.504;13.358;2023-08-06T08:16:48;21.70;;;15.25;;
41568;SDS011;27283;52.504;13.358;2023-08-06T08:19:23;21.55;;;15.18;;
41568;SDS011;27283;52.504;13.358;2023-08-06T08:21:58;22.42;;;14.93;;
41568;SDS011;27283;52.504;13.358;2023-08-06T08:24:33;22.08;;;14.18;;
41568;SDS011;27283;52.504;13.358;2023-08-06T08:27:05;22.17;;;14.88;;
41568;SDS011;27283;52.504;13.358;2023-08-06T08:29:41;23.77;;;16.75;;
41568;SDS011;27283;52.504;13.358;2023-08-06T08:32:13;22.65;;;16.33;;
41568;SDS011;27283;52.504;13.358;2023-08-06T08:34:58;24.48;;;17.35;;
41568;SDS011;27283;52.504;13.358;2023-08-06T08:37:45;22.67;;;16.15;;
41568;SDS011;27283;52.504;13.358;2023-08-06T08:40:17;25.05;;;16.50;;
41568;SDS011;27283;52.504;13.358;2023-08-06T08:42:49;23.05;;;16.42;;
41568;SDS011;27283;52.504;13.358;2023-08-06T08:45:22;23.92;;;16.92;;
41568;SDS011;27283;52.504;13.358;2023-08-06T08:48:00;29.60;;;18.50;;
41568;SDS011;27283;52.504;13.358;2023-08-06T08:50:53;26.20;;;17.90;;
41568;SDS011;27283;52.504;13.358;2023-08-06T08:53:52;24.30;;;16.67;;
41568;SDS011;27283;52.504;13.358;2023-08-06T08:56:28;24.13;;;16.38;;
41568;SDS011;27283;52.504;13.358;2023-08-06T08:59:04;27.65;;;17.15;;
41568;SDS011;27283;52.504;13.358;2023-08-06T09:01:36;24.48;;;16.52;;
41568;SDS011;27283;52.504;13.358;2023-08-06T09:04:21;24.73;;;17.75;;
41568;SDS011;27283;52.504;13.358;2023-08-06T09:07:04;26.30;;;18.25;;
41568;SDS011;27283;52.504;13.358;2023-08-06T09:09:39;24.23;;;16.75;;
41568;SDS011;27283;52.504;13.358;2023-08-06T09:12:14;25.95;;;18.05;;
41568;SDS011;27283;52.504;13.358;2023-08-06T09:14:50;23.80;;;17.33;;
41568;SDS011;27283;52.504;13.358;2023-08-06T09:17:35;26.17;;;18.23;;
41568;SDS011;27283;52.504;13.358;2023-08-06T09:20:11;26.77;;;18.42;;
41568;SDS011;27283;52.504;13.358;2023-08-06T09:26:00;24.83;;;15.70;;
41568;SDS011;27283;52.504;13.358;2023-08-06T09:28:39;25.15;;;17.67;;
41568;SDS011;27283;52.504;13.358;2023-08-06T09:31:12;31.55;;;19.60;;
41568;SDS011;27283;52.504;13.358;2023-08-06T09:33:44;29.83;;;18.42;;
41568;SDS011;27283;52.504;13.358;2023-08-06T09:36:17;23.98;;;16.42;;
41568;SDS011;27283;52.504;13.358;2023-08-06T09:38:50;24.77;;;15.85;;
41568;SDS011;27283;52.504;13.358;2023-08-06T09:41:28;23.38;;;17.00;;
41568;SDS011;27283;52.504;13.358;2023-08-06T09:44:00;24.75;;;17.00;;
41568;SDS011;27283;52.504;13.358;2023-08-06T09:46:35;26.63;;;17.35;;
41568;SDS011;27283;52.504;13.358;2023-08-06T09:49:10;22.80;;;16.20;;
41568;SDS011;27283;52.504;13.358;2023-08-06T09:51:42;23.92;;;16.90;;
41568;SDS011;27283;52.504;13.358;2023-08-06T09:54:30;26.15;;;16.40;;
41568;SDS011;27283;52.504;13.358;2023-08-06T09:57:06;23.83;;;16.05;;
41568;SDS011;27283;52.504;13.358;2023-08-06T09:59:39;22.30;;;15.48;;
41568;SDS011;27283;52.504;13.358;2023-08-06T10:02:15;23.45;;;16.42;;
41568;SDS011;27283;52.504;13.358;2023-08-06T10:04:50;24.08;;;17.13;;
41568;SDS011;27283;52.504;13.358;2023-08-06T10:07:22;23.55;;;16.95;;
41568;SDS011;27283;52.504;13.358;2023-08-06T10:10:02;28.77;;;18.65;;
41568;SDS011;27283;52.504;13.358;2023-08-06T10:12:41;28.25;;;19.15;;
41568;SDS011;27283;52.504;13.358;2023-08-06T10:15:19;29.60;;;18.85;;
41568;SDS011;27283;52.504;13.358;2023-08-06T10:17:56;30.85;;;20.67;;
41568;SDS011;27283;52.504;13.358;2023-08-06T10:20:32;30.92;;;19.60;;
41568;SDS011;27283;52.504;13.358;2023-08-06T10:23:06;34.28;;;22.50;;
41568;SDS011;27283;52.504;13.358;2023-08-06T10:25:40;35.45;;;21.50;;
41568;SDS011;27283;52.504;13.358;2023-08-06T10:28:15;33.60;;;21.13;;
41568;SDS011;27283;52.504;13.358;2023-08-06T10:30:47;30.23;;;20.85;;
41568;SDS011;27283;52.504;13.358;2023-08-06T10:33:21;30.10;;;20.70;;
41568;SDS011;27283;52.504;13.358;2023-08-06T10:35:53;28.77;;;20.38;;
41568;SDS011;27283;52.504;13.358;2023-08-06T10:38:49;29.13;;;21.00;;
41568;SDS011;27283;52.504;13.358;2023-08-06T10:41:27;31.10;;;20.77;;
41568;SDS011;27283;52.504;13.358;2023-08-06T10:44:08;31.25;;;20.10;;
41568;SDS011;27283;52.504;13.358;2023-08-06T10:46:41;27.63;;;19.40;;
41568;SDS011;27283;52.504;13.358;2023-08-06T10:49:18;26.85;;;19.20;;
41568;SDS011;27283;52.504;13.358;2023-08-06T10:51:51;32.47;;;20.70;;
41568;SDS011;27283;52.504;13.358;2023-08-06T10:54:43;27.25;;;18.05;;
41568;SDS011;27283;52.504;13.358;2023-08-06T10:57:16;27.38;;;17.65;;
41568;SDS011;27283;52.504;13.358;2023-08-06T10:59:50;23.85;;;16.00;;
41568;SDS011;27283;52.504;13.358;2023-08-06T11:02:46;20.30;;;15.52;;
41568;SDS011;27283;52.504;13.358;2023-08-06T11:05:19;21.85;;;14.35;;
41568;SDS011;27283;52.504;13.358;2023-08-06T11:08:09;25.35;;;16.63;;
41568;SDS011;27283;52.504;13.358;2023-08-06T11:10:48;24.48;;;16.15;;
41568;SDS011;27283;52.504;13.358;2023-08-06T11:13:30;23.48;;;15.88;;
41568;SDS011;27283;52.504;13.358;2023-08-06T11:16:05;23.85;;;15.30;;
41568;SDS011;27283;52.504;13.358;2023-08-06T11:18:38;25.13;;;15.52;;
41568;SDS011;27283;52.504;13.358;2023-08-06T11:21:10;22.42;;;15.57;;
41568;SDS011;27283;52.504;13.358;2023-08-06T11:23:43;22.00;;;16.10;;
41568;SDS011;27283;52.504;13.358;2023-08-06T11:26:18;25.38;;;16.95;;
41568;SDS011;27283;52.504;13.358;2023-08-06T11:28:56;26.08;;;17.50;;
41568;SDS011;27283;52.504;13.358;2023-08-06T11:31:31;26.05;;;16.88;;
41568;SDS011;27283;52.504;13.358;2023-08-06T11:34:04;26.05;;;16.95;;
41568;SDS011;27283;52.504;13.358;2023-08-06T11:36:37;24.95;;;17.02;;
41568;SDS011;27283;52.504;13.358;2023-08-06T11:39:13;23.10;;;16.20;;
41568;SDS011;27283;52.504;13.358;2023-08-06T11:42:14;22.70;;;15.50;;
41568;SDS011;27283;52.504;13.358;2023-08-06T11:44:48;21.70;;;14.50;;
41568;SDS011;27283;52.504;13.358;2023-08-06T11:47:27;17.65;;;12.52;;
41568;SDS011;27283;52.504;13.358;2023-08-06T11:50:07;17.95;;;11.90;;
41568;SDS011;27283;52.504;13.358;2023-08-06T11:52:43;16.90;;;11.02;;
41568;SDS011;27283;52.504;13.358;2023-08-06T11:55:16;15.30;;;10.75;;
41568;SDS011;27283;52.504;13.358;2023-08-06T11:57:47;15.35;;;10.75;;
41568;SDS011;27283;52.504;13.358;2023-08-06T12:00:25;15.15;;;11.05;;
41568;SDS011;27283;52.504;13.358;2023-08-06T12:03:00;15.10;;;10.77;;
41568;SDS011;27283;52.504;13.358;2023-08-06T12:05:33;14.15;;;10.20;;
41568;SDS011;27283;52.504;13.358;2023-08-06T12:08:12;17.08;;;11.32;;
41568;SDS011;27283;52.504;13.358;2023-08-06T12:10:44;24.13;;;14.57;;
41568;SDS011;27283;52.504;13.358;2023-08-06T12:13:19;23.23;;;15.88;;
41568;SDS011;27283;52.504;13.358;2023-08-06T12:15:51;25.40;;;17.13;;
41568;SDS011;27283;52.504;13.358;2023-08-06T12:18:28;25.13;;;17.95;;
41568;SDS011;27283;52.504;13.358;2023-08-06T12:21:00;30.75;;;19.38;;
41568;SDS011;27283;52.504;13.358;2023-08-06T12:23:32;34.65;;;21.58;;
41568;SDS011;27283;52.504;13.358;2023-08-06T12:26:05;28.33;;;17.58;;
41568;SDS011;27283;52.504;13.358;2023-08-06T12:28:38;27.75;;;18.33;;
41568;SDS011;27283;52.504;13.358;2023-08-06T12:31:11;26.52;;;17.95;;
41568;SDS011;27283;52.504;13.358;2023-08-06T12:33:45;31.85;;;19.63;;
41568;SDS011;27283;52.504;13.358;2023-08-06T12:36:21;26.75;;;18.42;;
41568;SDS011;27283;52.504;13.358;2023-08-06T12:38:53;33.95;;;20.42;;
41568;SDS011;27283;52.504;13.358;2023-08-06T12:41:25;32.67;;;21.17;;
41568;SDS011;27283;52.504;13.358;2023-08-06T12:43:57;27.27;;;18.23;;
41568;SDS011;27283;52.504;13.358;2023-08-06T12:46:30;23.90;;;16.45;;
41568;SDS011;27283;52.504;13.358;2023-08-06T12:49:05;23.50;;;15.95;;
41568;SDS011;27283;52.504;13.358;2023-08-06T12:51:39;22.67;;;15.13;;
41568;SDS011;27283;52.504;13.358;2023-08-06T12:54:27;22.60;;;15.00;;
41568;SDS011;27283;52.504;13.358;2023-08-06T12:57:07;22.20;;;14.18;;
41568;SDS011;27283;52.504;13.358;2023-08-06T12:59:40;25.17;;;16.17;;
41568;SDS011;27283;52.504;13.358;2023-08-06T13:02:12;25.42;;;16.70;;
41568;SDS011;27283;52.504;13.358;2023-08-06T13:04:47;26.95;;;15.90;;
41568;SDS011;27283;52.504;13.358;2023-08-06T13:07:20;26.05;;;17.45;;
41568;SDS011;27283;52.504;13.358;2023-08-06T13:09:57;29.85;;;16.30;;
41568;SDS011;27283;52.504;13.358;2023-08-06T13:12:41;25.23;;;16.20;;
41568;SDS011;27283;52.504;13.358;2023-08-06T13:15:27;29.30;;;18.25;;
41568;SDS011;27283;52.504;13.358;2023-08-06T13:18:05;39.85;;;21.25;;
41568;SDS011;27283;52.504;13.358;2023-08-06T13:20:41;31.67;;;19.85;;
41568;SDS011;27283;52.504;13.358;2023-08-06T13:23:37;41.05;;;21.77;;
41568;SDS011;27283;52.504;13.358;2023-08-06T13:26:11;40.95;;;21.60;;
41568;SDS011;27283;52.504;13.358;2023-08-06T13:28:50;44.90;;;21.10;;
41568;SDS011;27283;52.504;13.358;2023-08-06T13:31:22;41.47;;;22.08;;
41568;SDS011;27283;52.504;13.358;2023-08-06T13:33:55;27.00;;;17.98;;
41568;SDS011;27283;52.504;13.358;2023-08-06T13:36:31;25.02;;;16.10;;
41568;SDS011;27283;52.504;13.358;2023-08-06T13:39:06;26.75;;;16.30;;
41568;SDS011;27283;52.504;13.358;2023-08-06T13:41:52;24.40;;;15.50;;
41568;SDS011;27283;52.504;13.358;2023-08-06T13:44:25;27.73;;;16.27;;
41568;SDS011;27283;52.504;13.358;2023-08-06T13:46:57;31.25;;;17.75;;
41568;SDS011;27283;52.504;13.358;2023-08-06T13:49:30;28.85;;;17.58;;
41568;SDS011;27283;52.504;13.358;2023-08-06T13:52:10;118.78;;;31.80;;
41568;SDS011;27283;52.504;13.358;2023-08-06T13:54:59;40.25;;;20.60;;
41568;SDS011;27283;52.504;13.358;2023-08-06T13:57:32;35.55;;;18.95;;
41568;SDS011;27283;52.504;13.358;2023-08-06T14:00:06;29.80;;;17.50;;
41568;SDS011;27283;52.504;13.358;2023-08-06T14:02:43;26.67;;;17.17;;
41568;SDS011;27283;52.504;13.358;2023-08-06T14:05:17;30.92;;;18.08;;
41568;SDS011;27283;52.504;13.358;2023-08-06T14:07:55;29.95;;;17.33;;
41568;SDS011;27283;52.504;13.358;2023-08-06T14:10:29;29.30;;;17.38;;
41568;SDS011;27283;52.504;13.358;2023-08-06T14:13:02;25.50;;;16.08;;
41568;SDS011;27283;52.504;13.358;2023-08-06T14:15:38;23.92;;;15.85;;
41568;SDS011;27283;52.504;13.358;2023-08-06T14:18:15;29.17;;;16.90;;
41568;SDS011;27283;52.504;13.358;2023-08-06T14:20:49;31.65;;;16.15;;
41568;SDS011;27283;52.504;13.358;2023-08-06T14:23:36;30.83;;;18.08;;
41568;SDS011;27283;52.504;13.358;2023-08-06T14:26:19;32.70;;;17.52;;
41568;SDS011;27283;52.504;13.358;2023-08-06T14:29:01;32.70;;;16.70;;
41568;SDS011;27283;52.504;13.358;2023-08-06T14:31:33;34.47;;;17.70;;
41568;SDS011;27283;52.504;13.358;2023-08-06T14:34:06;28.48;;;16.25;;
41568;SDS011;27283;52.504;13.358;2023-08-06T14:36:38;22.60;;;13.50;;
41568;SDS011;27283;52.504;13.358;2023-08-06T14:39:13;27.48;;;15.10;;
41568;SDS011;27283;52.504;13.358;2023-08-06T14:41:45;25.88;;;14.82;;
41568;SDS011;27283;52.504;13.358;2023-08-06T14:44:17;25.40;;;14.57;;
41568;SDS011;27283;52.504;13.358;2023-08-06T14:46:53;21.95;;;13.15;;
41568;SDS011;27283;52.504;13.358;2023-08-06T14:49:32;23.27;;;13.85;;
41568;SDS011;27283;52.504;13.358;2023-08-06T14:52:06;22.63;;;14.60;;
41568;SDS011;27283;52.504;13.358;2023-08-06T14:54:46;25.98;;;14.57;;
41568;SDS011;27283;52.504;13.358;2023-08-06T14:57:20;25.70;;;14.90;;
41568;SDS011;27283;52.504;13.358;2023-08-06T14:59:56;23.80;;;14.10;;
41568;SDS011;27283;52.504;13.358;2023-08-06T15:02:28;19.58;;;13.05;;
41568;SDS011;27283;52.504;13.358;2023-08-06T15:05:00;18.73;;;12.30;;
41568;SDS011;27283;52.504;13.358;2023-08-06T15:07:35;19.23;;;12.10;;
41568;SDS011;27283;52.504;13.358;2023-08-06T15:10:10;16.13;;;10.73;;
41568;SDS011;27283;52.504;13.358;2023-08-06T15:12:55;16.63;;;11.55;;
41568;SDS011;27283;52.504;13.358;2023-08-06T15:15:27;20.23;;;11.68;;
41568;SDS011;27283;52.504;13.358;2023-08-06T15:18:13;21.30;;;12.48;;
41568;SDS011;27283;52.504;13.358;2023-08-06T15:20:45;18.52;;;11.50;;
41568;SDS011;27283;52.504;13.358;2023-08-06T15:23:21;18.85;;;11.68;;
41568;SDS011;27283;52.504;13.358;2023-08-06T15:25:55;17.17;;;10.07;;
41568;SDS011;27283;52.504;13.358;2023-08-06T15:28:28;11.70;;;7.78;;
41568;SDS011;27283;52.504;13.358;2023-08-06T15:31:19;13.18;;;7.95;;
41568;SDS011;27283;52.504;13.358;2023-08-06T15:33:54;13.20;;;7.68;;
41568;SDS011;27283;52.504;13.358;2023-08-06T15:36:27;13.48;;;6.88;;